Terminal Aerodrome Forecast
Issued by NWS Tulsa, OK

Home | Current Version | Previous Version | Text Only | Print | Product List | Glossary On
Versions: 1 2 3 4 5 6 7 8 9 10 11 12 13 14
404
FTUS44 KTSA 051720
TAFFSM
TAF
KFSM 051720Z 0518/0618 12005KT P6SM SCT250
     FM060200 06003KT P6SM SCT150
     FM061500 VRB04KT P6SM SCT050 BKN100=

USA.gov is the U.S. government's official web portal to all federal, state and local government web resources and services.